createdAt,value
2022-11-20T00:01:33.617Z,50.28
2022-11-20T00:04:00.084Z,49.88
2022-11-20T00:06:26.748Z,50.31
2022-11-20T00:08:54.409Z,49.80
2022-11-20T00:11:21.496Z,49.55
2022-11-20T00:13:48.415Z,50.32
2022-11-20T00:16:16.020Z,50.11
2022-11-20T00:18:43.223Z,50.10
2022-11-20T00:21:13.372Z,49.15
2022-11-20T00:23:39.644Z,49.93
2022-11-20T00:26:06.590Z,50.75
2022-11-20T00:28:32.880Z,50.69
2022-11-20T00:31:17.112Z,50.02
2022-11-20T00:33:43.566Z,49.61
2022-11-20T00:36:10.689Z,48.80
2022-11-20T00:38:36.995Z,48.06
2022-11-20T00:41:04.260Z,48.25
2022-11-20T00:43:30.662Z,47.89
2022-11-20T00:46:00.065Z,48.10
2022-11-20T00:48:26.613Z,47.42
2022-11-20T00:50:52.937Z,47.97
2022-11-20T00:53:19.195Z,48.71
2022-11-20T00:55:53.351Z,47.66
2022-11-20T00:58:19.683Z,48.35
2022-11-20T01:00:45.986Z,47.83
2022-11-20T01:03:12.276Z,48.56
2022-11-20T01:05:38.543Z,48.46
2022-11-20T01:08:05.039Z,47.64
2022-11-20T01:10:31.365Z,48.34
2022-11-20T01:13:17.774Z,48.53
2022-11-20T01:15:46.546Z,48.10
2022-11-20T01:18:12.825Z,48.61
2022-11-20T01:20:39.095Z,48.39
2022-11-20T01:23:05.392Z,49.16
2022-11-20T01:25:31.722Z,49.59
2022-11-20T01:27:58.025Z,49.38
2022-11-20T01:30:24.319Z,49.24
2022-11-20T01:32:50.627Z,49.57
2022-11-20T01:35:16.900Z,49.16
2022-11-20T01:37:43.218Z,48.93
2022-11-20T01:40:09.858Z,48.69
2022-11-20T01:42:54.688Z,48.25
2022-11-20T01:45:39.260Z,48.26
2022-11-20T01:48:05.616Z,48.35
2022-11-20T01:50:33.971Z,48.13
2022-11-20T01:53:01.627Z,48.66
2022-11-20T01:55:29.487Z,49.13
2022-11-20T01:57:55.751Z,48.50
2022-11-20T02:00:22.323Z,48.96
2022-11-20T02:02:49.484Z,48.38
2022-11-20T02:05:18.251Z,48.36
2022-11-20T02:07:44.533Z,48.76
2022-11-20T02:10:10.800Z,48.51
2022-11-20T02:12:55.755Z,48.02
2022-11-20T02:15:26.216Z,48.33
2022-11-20T02:17:55.234Z,48.01
2022-11-20T02:20:21.525Z,48.00
2022-11-20T02:22:52.197Z,48.48
2022-11-20T02:25:18.517Z,49.84
2022-11-20T02:27:44.792Z,48.75
2022-11-20T02:30:11.930Z,49.06
2022-11-20T02:32:38.339Z,49.49
2022-11-20T02:35:19.644Z,50.49
2022-11-20T02:37:46.281Z,49.97
2022-11-20T02:40:12.564Z,49.93
2022-11-20T02:42:38.828Z,49.97
2022-11-20T02:45:05.604Z,50.22
2022-11-20T02:47:31.997Z,49.39
2022-11-20T02:49:58.349Z,49.25
2022-11-20T02:52:24.819Z,48.91
2022-11-20T02:54:51.077Z,48.34
2022-11-20T02:57:17.342Z,49.00
2022-11-20T02:59:43.599Z,48.92
2022-11-20T03:02:09.895Z,49.65
2022-11-20T03:04:36.155Z,49.10
2022-11-20T03:07:02.463Z,49.04
2022-11-20T03:09:28.745Z,49.10
2022-11-20T03:11:55.015Z,50.00
2022-11-20T03:14:21.294Z,49.66
2022-11-20T03:16:47.590Z,49.94
2022-11-20T03:19:13.870Z,50.13
2022-11-20T03:21:40.163Z,49.85
2022-11-20T03:24:06.559Z,49.69
2022-11-20T03:26:32.869Z,49.88
2022-11-20T03:29:00.457Z,49.46
2022-11-20T03:31:30.254Z,49.79
2022-11-20T03:33:56.843Z,49.09
2022-11-20T03:36:23.164Z,49.63
2022-11-20T03:38:49.512Z,49.78
2022-11-20T03:41:19.572Z,49.44
2022-11-20T03:43:50.081Z,49.49
2022-11-20T03:46:16.353Z,49.15
2022-11-20T03:48:44.444Z,48.64
2022-11-20T03:51:14.741Z,49.37
2022-11-20T03:53:41.383Z,49.45
2022-11-20T03:56:07.977Z,48.89
2022-11-20T03:58:36.321Z,48.93
2022-11-20T04:01:06.829Z,48.58
2022-11-20T04:03:33.160Z,48.33
2022-11-20T04:06:09.754Z,48.80
2022-11-20T04:08:36.028Z,47.87
2022-11-20T04:11:15.368Z,47.35
2022-11-20T04:13:41.748Z,47.39
2022-11-20T04:16:08.253Z,46.86
2022-11-20T04:18:34.538Z,47.44
2022-11-20T04:21:00.835Z,48.27
2022-11-20T04:23:28.799Z,47.74
2022-11-20T04:25:55.319Z,47.42
2022-11-20T04:28:21.581Z,47.23
2022-11-20T04:30:47.863Z,47.17
2022-11-20T04:33:14.133Z,47.05
2022-11-20T04:35:40.446Z,47.12
2022-11-20T04:38:06.756Z,47.45
2022-11-20T04:40:33.031Z,47.12
2022-11-20T04:42:59.292Z,47.07
2022-11-20T04:45:25.567Z,46.83
2022-11-20T04:47:51.836Z,46.23
2022-11-20T04:50:18.122Z,46.31
2022-11-20T04:52:44.405Z,46.63
2022-11-20T04:55:10.664Z,46.06
2022-11-20T04:57:36.921Z,45.42
2022-11-20T05:00:03.583Z,45.16
2022-11-20T05:02:31.445Z,45.39
2022-11-20T05:04:57.736Z,45.73
2022-11-20T05:07:24.086Z,45.24
2022-11-20T05:09:50.401Z,45.27
2022-11-20T05:12:16.671Z,44.78
2022-11-20T05:14:42.964Z,44.63
2022-11-20T05:17:10.920Z,44.33
2022-11-20T05:19:37.195Z,44.07
2022-11-20T05:22:03.568Z,43.54
2022-11-20T05:24:29.844Z,43.26
2022-11-20T05:26:56.105Z,44.05
2022-11-20T05:29:22.727Z,43.65
2022-11-20T05:31:49.158Z,43.54
2022-11-20T05:34:15.495Z,44.61
2022-11-20T05:36:41.781Z,45.68
2022-11-20T05:39:08.141Z,44.60
2022-11-20T05:41:34.413Z,45.10
2022-11-20T05:44:00.722Z,45.23
2022-11-20T05:46:29.034Z,44.62
2022-11-20T05:48:55.674Z,44.44
2022-11-20T05:51:21.949Z,44.98
2022-11-20T05:53:48.915Z,44.29
2022-11-20T05:56:19.001Z,44.69
2022-11-20T05:58:45.338Z,44.41
2022-11-20T06:01:15.477Z,45.10
2022-11-20T06:03:43.249Z,45.32
2022-11-20T06:06:09.554Z,45.65
2022-11-20T06:08:35.824Z,44.64
2022-11-20T06:11:08.702Z,45.03
2022-11-20T06:13:39.210Z,45.61
2022-11-20T06:16:08.017Z,44.46
2022-11-20T06:18:34.372Z,44.41
2022-11-20T06:21:01.512Z,44.41
2022-11-20T06:23:28.682Z,44.70
2022-11-20T06:25:54.955Z,44.36
2022-11-20T06:28:21.232Z,44.76
2022-11-20T06:30:47.596Z,44.09
2022-11-20T06:33:13.893Z,43.78
2022-11-20T06:35:40.180Z,44.03
2022-11-20T06:38:06.444Z,44.04
2022-11-20T06:40:32.733Z,43.83
2022-11-20T06:42:59.003Z,43.58
2022-11-20T06:45:25.273Z,43.57
2022-11-20T06:47:51.528Z,42.82
2022-11-20T06:50:17.806Z,44.27
2022-11-20T06:52:44.092Z,43.64
2022-11-20T06:55:10.352Z,44.11
2022-11-20T06:57:36.641Z,43.89
2022-11-20T07:00:02.910Z,43.87
2022-11-20T07:02:29.176Z,43.37
2022-11-20T07:04:55.469Z,44.85
2022-11-20T07:07:21.783Z,44.07
2022-11-20T07:09:48.071Z,43.67
2022-11-20T07:12:14.358Z,42.94
2022-11-20T07:14:40.644Z,43.57
2022-11-20T07:17:06.902Z,43.58
2022-11-20T07:19:33.204Z,43.27
2022-11-20T07:21:59.543Z,43.59
2022-11-20T07:24:25.827Z,44.10
2022-11-20T07:26:52.112Z,45.01
2022-11-20T07:29:18.524Z,45.33
2022-11-20T07:31:44.860Z,45.36
2022-11-20T07:34:11.195Z,45.72
2022-11-20T07:36:37.487Z,45.25
2022-11-20T07:39:03.923Z,45.71
2022-11-20T07:41:30.191Z,45.30
2022-11-20T07:43:56.450Z,45.23
2022-11-20T07:46:22.724Z,45.26
2022-11-20T07:48:49.036Z,44.75
2022-11-20T07:51:15.432Z,42.98
2022-11-20T07:53:41.713Z,43.36
2022-11-20T07:56:08.036Z,43.69
2022-11-20T07:58:35.335Z,44.31
2022-11-20T08:01:05.534Z,44.79
2022-11-20T08:03:31.913Z,45.72
2022-11-20T08:06:01.840Z,44.95
2022-11-20T08:08:29.230Z,44.89
2022-11-20T08:11:17.951Z,44.52
2022-11-20T08:14:02.934Z,44.12
2022-11-20T08:16:29.236Z,43.83
2022-11-20T08:18:55.607Z,42.19
2022-11-20T08:21:21.898Z,43.20
2022-11-20T08:23:48.176Z,41.68
2022-11-20T08:26:14.457Z,43.43
2022-11-20T08:28:40.865Z,42.45
2022-11-20T08:31:07.127Z,43.00
2022-11-20T08:33:33.686Z,42.68
2022-11-20T08:36:01.018Z,43.53
2022-11-20T08:38:27.293Z,43.07
2022-11-20T08:41:15.230Z,40.24
2022-11-20T08:43:41.501Z,40.55
2022-11-20T08:46:07.757Z,39.24
2022-11-20T08:48:34.121Z,39.68
2022-11-20T08:51:00.522Z,39.46
2022-11-20T08:53:27.436Z,39.96
2022-11-20T08:55:54.098Z,41.06
2022-11-20T08:58:20.366Z,40.36
2022-11-20T09:00:46.670Z,41.22
2022-11-20T09:03:14.210Z,41.79
2022-11-20T09:05:40.545Z,41.73
2022-11-20T09:08:06.835Z,43.15
2022-11-20T09:10:33.190Z,42.81
2022-11-20T09:12:59.809Z,42.90
2022-11-20T09:15:26.204Z,42.94
2022-11-20T09:17:55.721Z,41.94
2022-11-20T09:20:22.049Z,44.12
2022-11-20T09:22:48.375Z,46.72
2022-11-20T09:25:14.642Z,46.21
2022-11-20T09:27:44.459Z,47.74
2022-11-20T09:30:10.926Z,48.62
2022-11-20T09:32:37.190Z,48.50
2022-11-20T09:35:03.874Z,47.77
2022-11-20T09:37:30.146Z,48.84
2022-11-20T09:39:56.413Z,48.88
2022-11-20T09:42:25.677Z,50.08
2022-11-20T09:44:54.981Z,50.36
2022-11-20T09:47:24.527Z,51.03
2022-11-20T09:49:55.157Z,50.43
2022-11-20T09:52:38.203Z,49.90
2022-11-20T09:55:04.534Z,50.46
2022-11-20T09:57:33.331Z,50.12
2022-11-20T10:00:00.431Z,50.02
2022-11-20T10:02:30.413Z,50.57
2022-11-20T10:04:56.655Z,50.97
2022-11-20T10:07:32.668Z,50.38
2022-11-20T10:09:59.616Z,49.57
2022-11-20T10:12:28.949Z,50.43
2022-11-20T10:15:11.400Z,49.72
2022-11-20T10:17:37.614Z,49.51
2022-11-20T10:20:15.318Z,49.66
2022-11-20T10:22:47.623Z,50.75
2022-11-20T10:25:13.827Z,51.17
2022-11-20T10:27:47.178Z,50.29
2022-11-20T10:30:14.281Z,50.29
2022-11-20T10:32:41.489Z,50.67
2022-11-20T10:35:15.461Z,51.47
2022-11-20T10:37:52.674Z,51.08
2022-11-20T10:40:23.694Z,49.88
2022-11-20T10:42:55.845Z,50.11
2022-11-20T10:45:25.016Z,49.54
2022-11-20T10:47:59.134Z,48.46
2022-11-20T10:50:25.454Z,47.86
2022-11-20T10:53:06.136Z,46.96
2022-11-20T10:55:41.920Z,46.57
2022-11-20T10:58:11.972Z,46.57
2022-11-20T11:00:38.317Z,45.75
2022-11-20T11:03:08.204Z,45.34
2022-11-20T11:05:45.338Z,46.58
2022-11-20T11:08:13.098Z,46.55
2022-11-20T11:10:57.247Z,47.37
2022-11-20T11:13:23.981Z,48.30
2022-11-20T11:15:50.254Z,48.03
2022-11-20T11:18:30.750Z,49.31
2022-11-20T11:20:57.381Z,48.00
2022-11-20T11:23:39.143Z,47.96
2022-11-20T11:26:06.385Z,47.34
2022-11-20T11:28:32.727Z,47.26
2022-11-20T11:30:59.012Z,45.96
2022-11-20T11:33:25.351Z,44.79
2022-11-20T11:35:53.481Z,45.12
2022-11-20T11:38:24.190Z,44.37
2022-11-20T11:40:50.484Z,44.82
2022-11-20T11:43:39.684Z,44.87
2022-11-20T11:46:09.769Z,44.96
2022-11-20T11:48:36.063Z,44.45
2022-11-20T11:51:02.335Z,43.88
2022-11-20T11:53:28.603Z,43.77
2022-11-20T11:55:59.641Z,43.19
2022-11-20T11:58:35.141Z,43.72
2022-11-20T12:01:20.291Z,43.45
2022-11-20T12:03:51.585Z,43.08
2022-11-20T12:06:17.967Z,42.46
2022-11-20T12:08:50.369Z,42.62
2022-11-20T12:11:35.424Z,42.50
2022-11-20T12:14:20.696Z,42.83
2022-11-20T12:16:47.005Z,42.21
2022-11-20T12:19:13.698Z,41.79
2022-11-20T12:21:46.387Z,42.23
2022-11-20T12:24:24.596Z,43.07
2022-11-20T12:26:50.792Z,43.72
2022-11-20T12:29:19.984Z,43.30
2022-11-20T12:31:52.394Z,42.74
2022-11-20T12:34:21.721Z,42.75
2022-11-20T12:36:54.263Z,43.08
2022-11-20T12:39:20.728Z,43.13
2022-11-20T12:42:35.156Z,42.75
2022-11-20T12:45:12.850Z,41.76
2022-11-20T12:47:43.665Z,42.07
2022-11-20T12:50:28.585Z,42.04
2022-11-20T12:52:58.395Z,41.93
2022-11-20T12:55:26.683Z,41.46
2022-11-20T12:57:58.100Z,42.77
2022-11-20T13:00:24.495Z,42.27
2022-11-20T13:02:53.741Z,41.72
2022-11-20T13:05:23.103Z,41.52
2022-11-20T13:07:49.497Z,41.78
2022-11-20T13:10:36.411Z,41.94
2022-11-20T13:13:21.420Z,43.96
2022-11-20T13:15:53.812Z,43.62
2022-11-20T13:18:20.086Z,42.69
2022-11-20T13:20:46.493Z,43.99
2022-11-20T13:23:12.819Z,45.10
2022-11-20T13:25:39.572Z,44.50
2022-11-20T13:28:25.764Z,43.99
2022-11-20T13:30:52.743Z,43.36
2022-11-20T13:33:32.069Z,43.34
2022-11-20T13:35:59.675Z,43.54
2022-11-20T13:38:28.772Z,43.32
2022-11-20T13:40:58.209Z,43.46
2022-11-20T13:43:27.187Z,42.92
2022-11-20T13:45:57.414Z,42.90
2022-11-20T13:48:24.573Z,43.16
2022-11-20T13:51:11.083Z,43.96
2022-11-20T13:53:52.544Z,44.65
2022-11-20T13:56:22.893Z,44.81
2022-11-20T13:59:05.296Z,43.90
2022-11-20T14:01:32.676Z,44.46
2022-11-20T14:04:05.978Z,43.97
2022-11-20T14:06:33.567Z,44.15
2022-11-20T14:08:59.867Z,43.84
2022-11-20T14:11:27.071Z,43.37
2022-11-20T14:14:14.035Z,43.99
2022-11-20T14:16:40.416Z,43.89
2022-11-20T14:19:18.317Z,43.94
2022-11-20T14:21:44.590Z,44.46
2022-11-20T14:24:11.594Z,44.54
2022-11-20T14:26:38.530Z,43.72
2022-11-20T14:29:04.802Z,43.75
2022-11-20T14:31:31.336Z,44.39
2022-11-20T14:33:59.385Z,44.26
2022-11-20T14:36:25.681Z,44.27
2022-11-20T14:38:52.353Z,42.82
2022-11-20T14:41:19.844Z,42.97
2022-11-20T14:43:46.614Z,43.11
2022-11-20T14:46:12.897Z,42.91
2022-11-20T14:48:40.156Z,43.77
2022-11-20T14:51:06.431Z,44.08
2022-11-20T14:53:32.699Z,43.82
2022-11-20T14:55:59.855Z,44.48
2022-11-20T14:58:27.261Z,44.43
2022-11-20T15:00:57.353Z,44.06
2022-11-20T15:03:27.839Z,44.24
2022-11-20T15:05:56.966Z,45.53
2022-11-20T15:08:23.241Z,44.83
2022-11-20T15:10:49.913Z,45.16
2022-11-20T15:13:27.047Z,44.82
2022-11-20T15:15:55.785Z,44.58
2022-11-20T15:18:22.747Z,44.82
2022-11-20T15:20:49.141Z,45.17
2022-11-20T15:23:16.311Z,45.31
2022-11-20T15:25:42.621Z,45.72
2022-11-20T15:28:14.617Z,45.59
2022-11-20T15:30:40.886Z,45.18
2022-11-20T15:33:08.724Z,45.80
2022-11-20T15:35:35.000Z,45.05
2022-11-20T15:38:01.271Z,44.92
2022-11-20T15:40:27.526Z,44.15
2022-11-20T15:43:13.337Z,44.81
2022-11-20T15:45:41.144Z,43.49
2022-11-20T15:48:11.541Z,43.78
2022-11-20T15:50:38.695Z,42.75
2022-11-20T15:53:05.118Z,42.47
2022-11-20T15:55:31.541Z,43.26
2022-11-20T15:57:57.831Z,43.12
2022-11-20T16:00:24.083Z,43.19
2022-11-20T16:02:50.340Z,43.06
2022-11-20T16:05:18.366Z,43.67
2022-11-20T16:07:44.726Z,42.38
2022-11-20T16:10:11.044Z,42.91
2022-11-20T16:12:56.003Z,42.17
2022-11-20T16:15:40.740Z,42.36
2022-11-20T16:18:08.195Z,42.08
2022-11-20T16:20:34.490Z,42.75
2022-11-20T16:23:00.782Z,42.08
2022-11-20T16:25:27.746Z,41.71
2022-11-20T16:27:54.029Z,41.39
2022-11-20T16:30:20.376Z,41.55
2022-11-20T16:32:46.684Z,40.77
2022-11-20T16:35:12.959Z,41.80
2022-11-20T16:37:40.331Z,42.90
2022-11-20T16:40:06.959Z,42.59
2022-11-20T16:42:34.043Z,42.20
2022-11-20T16:45:00.329Z,42.78
2022-11-20T16:47:26.625Z,42.42
2022-11-20T16:49:52.990Z,42.35
2022-11-20T16:52:19.252Z,42.07
2022-11-20T16:54:45.534Z,41.99
2022-11-20T16:57:11.792Z,42.11
2022-11-20T16:59:38.056Z,42.75
2022-11-20T17:02:04.330Z,43.06
2022-11-20T17:04:30.643Z,43.17
2022-11-20T17:06:56.915Z,42.80
2022-11-20T17:09:23.191Z,43.20
2022-11-20T17:11:49.803Z,42.77
2022-11-20T17:14:16.069Z,42.57
2022-11-20T17:16:42.928Z,41.87
2022-11-20T17:19:09.265Z,42.10
2022-11-20T17:21:39.512Z,41.68
2022-11-20T17:24:06.814Z,41.74
2022-11-20T17:26:33.102Z,41.34
2022-11-20T17:29:00.244Z,42.77
2022-11-20T17:31:26.773Z,42.31
2022-11-20T17:33:53.050Z,42.78
2022-11-20T17:36:19.327Z,40.00
2022-11-20T17:38:45.609Z,40.47
2022-11-20T17:41:11.857Z,40.26
2022-11-20T17:43:38.193Z,40.50
2022-11-20T17:46:08.445Z,40.60
2022-11-20T17:48:35.124Z,40.22
2022-11-20T17:51:02.086Z,41.32
2022-11-20T17:53:28.704Z,40.56
2022-11-20T17:56:14.484Z,39.34
2022-11-20T17:58:40.783Z,38.67
2022-11-20T18:01:07.321Z,39.39
2022-11-20T18:03:33.623Z,39.15
2022-11-20T18:06:07.573Z,40.88
2022-11-20T18:08:33.852Z,40.69
2022-11-20T18:11:00.139Z,42.55
2022-11-20T18:13:47.810Z,41.98
2022-11-20T18:16:14.331Z,42.69
2022-11-20T18:18:40.609Z,42.84
2022-11-20T18:21:06.879Z,43.01
2022-11-20T18:23:33.564Z,43.32
2022-11-20T18:26:00.418Z,43.05
2022-11-20T18:28:26.680Z,41.82
2022-11-20T18:30:53.228Z,41.79
2022-11-20T18:33:22.139Z,44.04
2022-11-20T18:35:52.097Z,46.90
2022-11-20T18:38:18.427Z,48.58
2022-11-20T18:40:44.701Z,48.33
2022-11-20T18:43:29.740Z,47.08
2022-11-20T18:46:02.936Z,46.65
2022-11-20T18:48:31.281Z,47.04
2022-11-20T18:51:06.971Z,46.89
2022-11-20T18:53:36.073Z,45.97
2022-11-20T18:56:05.558Z,45.91
2022-11-20T18:58:31.825Z,46.67
2022-11-20T19:01:07.382Z,46.76
2022-11-20T19:03:34.089Z,46.03
2022-11-20T19:06:00.350Z,45.98
2022-11-20T19:08:26.656Z,44.87
2022-11-20T19:10:52.917Z,45.66
2022-11-20T19:13:19.209Z,45.42
2022-11-20T19:15:45.473Z,46.15
2022-11-20T19:18:11.751Z,46.80
2022-11-20T19:20:38.024Z,47.10
2022-11-20T19:23:04.563Z,45.45
2022-11-20T19:25:36.671Z,46.09
2022-11-20T19:28:04.304Z,45.74
2022-11-20T19:30:30.590Z,46.19
2022-11-20T19:32:57.996Z,46.24
2022-11-20T19:35:24.518Z,47.56
2022-11-20T19:37:51.236Z,48.30
2022-11-20T19:40:17.533Z,48.80
2022-11-20T19:42:43.809Z,47.36
2022-11-20T19:45:10.109Z,48.04
2022-11-20T19:48:05.915Z,49.51
2022-11-20T19:50:22.687Z,49.23
2022-11-20T19:52:50.402Z,48.99
2022-11-20T19:55:19.384Z,49.35
2022-11-20T19:57:45.679Z,50.94
2022-11-20T20:00:15.982Z,50.07
2022-11-20T20:02:46.378Z,50.92
2022-11-20T20:05:12.688Z,50.92
2022-11-20T20:07:40.034Z,51.37
2022-11-20T20:10:06.680Z,51.14
2022-11-20T20:12:32.976Z,51.17
2022-11-20T20:14:59.233Z,50.68
2022-11-20T20:17:25.522Z,51.03
2022-11-20T20:19:51.811Z,50.99
2022-11-20T20:22:18.090Z,51.10
2022-11-20T20:24:44.367Z,51.72
2022-11-20T20:27:10.652Z,51.46
2022-11-20T20:29:36.928Z,51.31
2022-11-20T20:32:03.205Z,50.71
2022-11-20T20:34:31.322Z,51.50
2022-11-20T20:36:57.646Z,51.49
2022-11-20T20:39:26.657Z,52.71
2022-11-20T20:41:52.940Z,51.16
2022-11-20T20:44:37.914Z,51.52
2022-11-20T20:47:04.724Z,50.97
2022-11-20T20:49:32.774Z,50.38
2022-11-20T20:51:59.055Z,50.41
2022-11-20T20:54:25.337Z,51.61
2022-11-20T20:56:51.684Z,51.42
2022-11-20T20:59:17.963Z,51.13
2022-11-20T21:01:44.284Z,50.42
2022-11-20T21:04:11.424Z,49.63
2022-11-20T21:06:37.704Z,47.95
2022-11-20T21:09:03.980Z,49.92
2022-11-20T21:11:30.250Z,50.20
2022-11-20T21:13:56.528Z,50.99
2022-11-20T21:16:23.474Z,50.30
2022-11-20T21:18:49.741Z,52.27
2022-11-20T21:21:35.015Z,50.49
2022-11-20T21:24:01.364Z,50.82
2022-11-20T21:26:27.653Z,50.55
2022-11-20T21:28:54.005Z,50.38
2022-11-20T21:31:24.817Z,49.91
2022-11-20T21:33:51.539Z,50.67
2022-11-20T21:36:19.061Z,49.49
2022-11-20T21:38:45.503Z,50.29
2022-11-20T21:41:12.528Z,49.94
2022-11-20T21:43:38.808Z,49.67
2022-11-20T21:46:05.879Z,48.79
2022-11-20T21:48:32.334Z,49.60
2022-11-20T21:51:06.432Z,48.93
2022-11-20T21:53:33.155Z,51.77
2022-11-20T21:55:59.578Z,49.99
2022-11-20T21:58:25.870Z,50.86
2022-11-20T22:00:52.184Z,51.72
2022-11-20T22:03:18.470Z,50.86
2022-11-20T22:05:52.613Z,50.92
2022-11-20T22:08:18.866Z,51.08
2022-11-20T22:10:45.139Z,51.62
2022-11-20T22:13:30.132Z,51.20
2022-11-20T22:16:01.396Z,51.38
2022-11-20T22:18:27.873Z,50.88
2022-11-20T22:20:54.167Z,50.94
2022-11-20T22:23:20.430Z,50.55
2022-11-20T22:25:46.711Z,51.43
2022-11-20T22:28:12.984Z,50.80
2022-11-20T22:30:39.273Z,51.23
2022-11-20T22:33:10.370Z,50.36
2022-11-20T22:35:39.484Z,49.63
2022-11-20T22:38:07.571Z,50.17
2022-11-20T22:40:33.852Z,50.14
2022-11-20T22:43:00.140Z,49.64
2022-11-20T22:45:26.429Z,49.80
2022-11-20T22:47:52.694Z,50.41
2022-11-20T22:50:19.030Z,49.88
2022-11-20T22:52:45.290Z,49.68
2022-11-20T22:55:16.133Z,50.74
2022-11-20T22:57:42.757Z,51.10
2022-11-20T23:00:09.290Z,50.50
2022-11-20T23:02:35.599Z,50.70
2022-11-20T23:05:01.873Z,50.71
2022-11-20T23:07:28.175Z,50.05
2022-11-20T23:09:54.498Z,50.56
2022-11-20T23:12:20.767Z,50.82
2022-11-20T23:14:47.093Z,51.21
2022-11-20T23:17:13.419Z,50.26
2022-11-20T23:19:39.735Z,51.38
2022-11-20T23:22:06.017Z,50.76
2022-11-20T23:24:32.280Z,50.44
2022-11-20T23:26:58.537Z,50.52
2022-11-20T23:29:24.884Z,51.22
2022-11-20T23:31:51.244Z,50.42
2022-11-20T23:34:17.548Z,50.77
2022-11-20T23:36:43.808Z,51.39
2022-11-20T23:39:10.174Z,51.03
2022-11-20T23:41:36.453Z,50.74
2022-11-20T23:44:02.744Z,49.89
2022-11-20T23:46:29.030Z,49.47
2022-11-20T23:48:55.299Z,51.74
2022-11-20T23:51:21.569Z,50.75
2022-11-20T23:53:47.854Z,51.16
2022-11-20T23:56:14.510Z,50.50
2022-11-20T23:58:41.357Z,50.43
